^^

Weather Underground History

Daily Summary for September 17, 2019 Units:  Metric    English   Both
Daily Weekly Monthly Yearly Custom
  Current: High: Low: Average:
Temperature: 12.4 °C 12.4 °C 6.1 °C 7.7 °C
Dew Point: 8.5 °C 8.8 °C 4.9 °C 6.2 °C
Humidity: 77% 93% 77% 91%
Wind Speed: 8km/h 8km/h 0km/h 0.5km/h
Wind Gust: 12.9km/h 12.9km/h - -
WindNorth - - NW
Pressure: 1024.5 hPa 1024.5 hPa 1022.6 hPa -
Precipitation: 0.0 mm      
Historical Graphs
 
 
Tabular Data for September 17, 2019
Time Temperature Dew Point Pressure Wind Wind Speed Wind Gust Humidity Rainfall Rate (Hourly) solar
00:04 8.4 °C 6.7 °C 1022.7 hPa Calm     89% 0.0 mm 0 W/m2
00:09 8.4 °C 6.6 °C 1022.7 hPa Calm     89% 0.0 mm 0 W/m2
00:14 8.3 °C 6.6 °C 1022.7 hPa Calm     89% 0.0 mm 0 W/m2
00:19 8.3 °C 6.7 °C 1022.6 hPa Calm     89.9% 0.0 mm 0 W/m2
00:24 8.3 °C 6.7 °C 1022.6 hPa Calm     90% 0.0 mm 0 W/m2
00:29 8.3 °C 6.8 °C 1022.6 hPa Calm     90% 0.0 mm 0 W/m2
00:34 8.3 °C 6.7 °C 1022.6 hPa Calm     90% 0.0 mm 0 W/m2
00:39 8.2 °C 6.6 °C 1022.6 hPa Calm     90% 0.0 mm 0 W/m2
00:44 8.1 °C 6.6 °C 1022.7 hPa Calm     90% 0.0 mm 0 W/m2
00:49 8.1 °C 6.5 °C 1022.8 hPa Calm     90% 0.0 mm 0 W/m2
00:54 8 °C 6.6 °C 1022.8 hPa Calm     90.7% 0.0 mm 0 W/m2
00:59 8 °C 6.4 °C 1022.9 hPa Calm     90% 0.0 mm 0 W/m2
01:04 7.9 °C 6.3 °C 1022.9 hPa Calm     90% 0.0 mm 0 W/m2
01:09 7.8 °C 6.3 °C 1022.8 hPa Calm     90.3% 0.0 mm 0 W/m2
01:14 7.8 °C 6.4 °C 1022.7 hPa Calm     91% 0.0 mm 0 W/m2
01:19 7.7 °C 6.4 °C 1022.8 hPa Calm     91% 0.0 mm 0 W/m2
01:24 7.8 °C 6.4 °C 1022.8 hPa Calm     91% 0.0 mm 0 W/m2
01:29 7.8 °C 6.4 °C 1022.9 hPa Calm     91% 0.0 mm 0 W/m2
01:34 7.8 °C 6.4 °C 1022.9 hPa Calm     91% 0.0 mm 0 W/m2
01:39 7.8 °C 6.4 °C 1022.9 hPa Calm     91% 0.0 mm 0 W/m2
01:44 7.7 °C 6.3 °C 1022.9 hPa Calm     91% 0.0 mm 0 W/m2
01:49 7.5 °C 6.2 °C 1022.9 hPa Calm     91% 0.0 mm 0 W/m2
01:54 7.5 °C 6.1 °C 1022.9 hPa Calm     91% 0.0 mm 0 W/m2
01:59 7.4 °C 6 °C 1022.9 hPa Calm     91% 0.0 mm 0 W/m2
02:04 7.3 °C 5.9 °C 1023.0 hPa Calm     91% 0.0 mm 0 W/m2
02:09 7.3 °C 6.1 °C 1023.0 hPa Calm     91.8% 0.0 mm 0 W/m2
02:14 7.4 °C 6.2 °C 1023.0 hPa Calm     92% 0.0 mm 0 W/m2
02:19 7.5 °C 6.3 °C 1023.0 hPa Calm     92% 0.0 mm 0 W/m2
02:24 7.4 °C 6.2 °C 1023.0 hPa Calm     92% 0.0 mm 0 W/m2
02:29 7.3 °C 6.1 °C 1023.0 hPa Calm     92% 0.0 mm 0 W/m2
02:34 7.3 °C 6.1 °C 1022.9 hPa Calm     92% 0.0 mm 0 W/m2
02:39 7.3 °C 6.1 °C 1022.9 hPa Calm     92% 0.0 mm 0 W/m2
02:44 7.3 °C 6.1 °C 1023.1 hPa Calm     92% 0.0 mm 0 W/m2
02:49 7.2 °C 6 °C 1023.2 hPa Calm     92% 0.0 mm 0 W/m2
02:54 7.2 °C 5.9 °C 1023.2 hPa Calm     92% 0.0 mm 0 W/m2
02:59 7.1 °C 5.9 °C 1023.2 hPa Calm     92% 0.0 mm 0 W/m2
03:04 7 °C 5.8 °C 1023.2 hPa Calm     92% 0.0 mm 0 W/m2
03:09 7 °C 5.8 °C 1023.2 hPa Calm     92% 0.0 mm 0 W/m2
03:14 7 °C 5.8 °C 1023.2 hPa Calm     92% 0.0 mm 0 W/m2
03:19 7 °C 5.8 °C 1023.2 hPa Calm     92% 0.0 mm 0 W/m2
03:24 7 °C 5.8 °C 1023.2 hPa Calm   1.6 km/h 92% 0.0 mm 0 W/m2
03:29 7.1 °C 5.8 °C 1023.2 hPa NW 0.1 km/h 3.2 km/h 92% 0.0 mm 0 W/m2
03:34 7.1 °C 5.9 °C 1023.2 hPa NW 0.1 km/h 3.2 km/h 92.3% 0.0 mm 0 W/m2
03:39 7.1 °C 6 °C 1023.3 hPa WNW 1.1 km/h 9.7 km/h 92.8% 0.0 mm 0 W/m2
03:44 7.2 °C 6.1 °C 1023.3 hPa WNW 0.6 km/h 6.4 km/h 93% 0.0 mm 0 W/m2
03:49 7.3 °C 6.2 °C 1023.2 hPa WNW 0.4 km/h 3.2 km/h 93% 0.0 mm 0 W/m2
03:54 7.4 °C 6.4 °C 1023.2 hPa WNW 0.7 km/h 4.8 km/h 93% 0.0 mm 0 W/m2
03:59 7.4 °C 6.4 °C 1023.2 hPa Calm   1.6 km/h 93% 0.0 mm 0 W/m2
04:04 7.4 °C 6.2 °C 1023.2 hPa Calm     92.1% 0.0 mm 0 W/m2
04:09 7.2 °C 6 °C 1023.2 hPa Calm     92% 0.0 mm 0 W/m2
04:14 7.2 °C 6 °C 1023.1 hPa Calm     92% 0.0 mm 0 W/m2
04:19 7.1 °C 5.9 °C 1023.0 hPa Calm     92% 0.0 mm 0 W/m2
04:24 7 °C 5.8 °C 1023.0 hPa Calm     92% 0.0 mm 0 W/m2
04:29 7 °C 5.8 °C 1023.0 hPa Calm     92% 0.0 mm 0 W/m2
04:34 6.9 °C 5.7 °C 1023.0 hPa Calm     92% 0.0 mm 0 W/m2
04:39 6.9 °C 5.7 °C 1023.0 hPa WNW 0.8 km/h 8 km/h 92% 0.0 mm 0 W/m2
04:44 6.9 °C 5.7 °C 1023.0 hPa WNW 2.4 km/h 8 km/h 92% 0.0 mm 0 W/m2
04:49 7.1 °C 6 °C 1023.1 hPa NW 1.4 km/h 8 km/h 92.7% 0.0 mm 0 W/m2
04:54 7.3 °C 6.1 °C 1023.1 hPa NW 0.1 km/h 1.6 km/h 92.5% 0.0 mm 0 W/m2
04:59 7.3 °C 6.1 °C 1023.1 hPa NW 0.1 km/h 1.6 km/h 92% 0.0 mm 0 W/m2
05:04 7.2 °C 6 °C 1023.0 hPa Calm   1.6 km/h 92% 0.0 mm 0 W/m2
05:09 7.2 °C 5.9 °C 1022.9 hPa Calm     91.4% 0.0 mm 0 W/m2
05:14 7.1 °C 5.7 °C 1023.0 hPa Calm     91% 0.0 mm 0 W/m2
05:19 7.1 °C 5.7 °C 1023.1 hPa Calm     91% 0.0 mm 0 W/m2
05:24 6.9 °C 5.6 °C 1023.1 hPa Calm     91% 0.0 mm 0 W/m2
05:29 6.8 °C 5.4 °C 1023.1 hPa Calm     91% 0.0 mm 0 W/m2
05:34 6.7 °C 5.3 °C 1023.1 hPa Calm     91% 0.0 mm 0 W/m2
05:39 6.6 °C 5.2 °C 1023.1 hPa Calm     91% 0.0 mm 0 W/m2
05:44 6.5 °C 5.1 °C 1023.2 hPa Calm     91% 0.0 mm 0 W/m2
05:49 6.4 °C 5 °C 1023.2 hPa Calm     91% 0.0 mm 0 W/m2
05:54 6.3 °C 4.9 °C 1023.2 hPa Calm     91% 0.0 mm 0 W/m2
05:59 6.3 °C 4.9 °C 1023.2 hPa Calm     91.2% 0.0 mm 0 W/m2
06:04 6.3 °C 5.1 °C 1023.2 hPa Calm     92% 0.0 mm 0 W/m2
06:09 6.3 °C 5.1 °C 1023.2 hPa Calm     92% 0.0 mm 0 W/m2
06:14 6.3 °C 5.1 °C 1023.3 hPa Calm     92% 0.0 mm 0 W/m2
06:19 6.3 °C 5.1 °C 1023.3 hPa Calm     92% 0.0 mm 0 W/m2
06:24 6.2 °C 5 °C 1023.3 hPa NW 0.2 km/h 3.2 km/h 92% 0.0 mm 0 W/m2
06:29 6.2 °C 5 °C 1023.3 hPa Calm   3.2 km/h 92% 0.0 mm 0 W/m2
06:34 6.1 °C 4.9 °C 1023.4 hPa NW 0.2 km/h 3.2 km/h 92% 0.0 mm 0 W/m2
06:39 6.2 °C 5 °C 1023.5 hPa Calm   3.2 km/h 92% 0.0 mm 0 W/m2
06:44 6.2 °C 5 °C 1023.5 hPa Calm   1.6 km/h 92% 0.0 mm 0 W/m2
06:49 6.2 °C 5 °C 1023.6 hPa Calm   1.6 km/h 92% 0.0 mm 7 W/m2
06:54 6.3 °C 5.1 °C 1023.6 hPa Calm     92% 0.0 mm 9 W/m2
06:59 6.3 °C 5.1 °C 1023.7 hPa Calm     92% 0.0 mm 11 W/m2
07:04 6.3 °C 5.1 °C 1023.8 hPa Calm     92% 0.0 mm 12 W/m2
07:09 6.2 °C 5 °C 1023.8 hPa Calm     92% 0.0 mm 18 W/m2
07:14 6.2 °C 5 °C 1023.8 hPa Calm     92% 0.0 mm 30 W/m2
07:19 6.2 °C 5 °C 1023.9 hPa Calm     92% 0.0 mm 25 W/m2
07:24 6.2 °C 5 °C 1023.9 hPa Calm     92% 0.0 mm 35 W/m2
07:29 6.2 °C 5 °C 1023.8 hPa Calm     92% 0.0 mm 30 W/m2
07:34 6.3 °C 5.1 °C 1023.8 hPa Calm     92% 0.0 mm 62 W/m2
07:39 6.4 °C 5.3 °C 1023.8 hPa Calm   1.6 km/h 92.7% 0.0 mm 91 W/m2
07:44 6.6 °C 5.6 °C 1023.8 hPa Calm     93% 0.0 mm 93 W/m2
07:49 6.9 °C 5.8 °C 1023.8 hPa Calm     93% 0.0 mm 90 W/m2
07:54 7.2 °C 6.1 °C 1023.8 hPa Calm   1.6 km/h 93% 0.0 mm 130 W/m2
07:59 7.4 °C 6.4 °C 1023.9 hPa NW 0.2 km/h 3.2 km/h 93% 0.0 mm 135 W/m2
08:04 7.7 °C 6.6 °C 1023.9 hPa Calm     93% 0.0 mm 151 W/m2
08:09 7.9 °C 6.8 °C 1024.0 hPa NW 0.3 km/h 3.2 km/h 93% 0.0 mm 158 W/m2
08:14 8.1 °C 7 °C 1024.0 hPa NW 0.2 km/h 1.6 km/h 92.5% 0.0 mm 171 W/m2
08:19 8.4 °C 7.1 °C 1024.1 hPa NW 0.7 km/h 3.2 km/h 92% 0.0 mm 178 W/m2
08:24 8.6 °C 7.4 °C 1024.2 hPa NW 0.7 km/h 3.2 km/h 91.8% 0.0 mm 186 W/m2
08:29 8.9 °C 7.5 °C 1024.2 hPa NW 0.4 km/h 3.2 km/h 91% 0.0 mm 207 W/m2
08:34 9.2 °C 7.8 °C 1024.3 hPa Calm   3.2 km/h 91% 0.0 mm 225 W/m2
08:39 9.4 °C 7.9 °C 1024.4 hPa NW 0.5 km/h 4.8 km/h 90.2% 0.0 mm 236 W/m2
08:44 9.7 °C 8.1 °C 1024.4 hPa NW 1.6 km/h 4.8 km/h 89.8% 0.0 mm 248 W/m2
08:49 9.9 °C 8.1 °C 1024.3 hPa NW 2.5 km/h 8 km/h 88.6% 0.0 mm 258 W/m2
08:54 10.2 °C 8.2 °C 1024.5 hPa NW 1.7 km/h 8 km/h 87.1% 0.0 mm 271 W/m2
08:59 10.5 °C 8.3 °C 1024.5 hPa NW 2.8 km/h 6.4 km/h 86.2% 0.0 mm 283 W/m2
09:04 10.7 °C 8.3 °C 1024.5 hPa NW 2.2 km/h 6.4 km/h 85% 0.0 mm 294 W/m2
09:09 11 °C 8.4 °C 1024.4 hPa NW 3.4 km/h 9.7 km/h 83.9% 0.0 mm 306 W/m2
09:14 11.2 °C 8.4 °C 1024.5 hPa NW 2.8 km/h 9.7 km/h 83% 0.0 mm 320 W/m2
09:19 11.4 °C 8.6 °C 1024.5 hPa NW 1 km/h 6.4 km/h 82.8% 0.0 mm 332 W/m2
09:24 11.7 °C 8.8 °C 1024.4 hPa NW 2 km/h 11.3 km/h 82.3% 0.0 mm 348 W/m2
09:29 12 °C 8.8 °C 1024.5 hPa NW 5.7 km/h 12.9 km/h 80.9% 0.0 mm 362 W/m2
09:34 12.2 °C 8.6 °C 1024.5 hPa NW 4.8 km/h 12.9 km/h 78.7% 0.0 mm 376 W/m2
09:39 12.3 °C 8.5 °C 1024.5 hPa NNW 5.3 km/h 12.9 km/h 77.7% 0.0 mm 390 W/m2
09:40 12.4 °C 8.5 °C 1024.5 hPa North 8 km/h 12.9 km/h 77% 0.0 mm 390 W/m2
Compliments of Weather Underground - 3 mb